sensor_id;sensor_type;location;lat;lon;timestamp;temperature;humidity
20915;DHT22;10617;52.032;5.298;2024-01-15T00:00:58;1.80;99.90
20915;DHT22;10617;52.032;5.298;2024-01-15T00:05:00;1.70;99.90
20915;DHT22;10617;52.032;5.298;2024-01-15T00:09:02;1.70;99.90
20915;DHT22;10617;52.032;5.298;2024-01-15T00:13:03;1.60;99.90
20915;DHT22;10617;52.032;5.298;2024-01-15T00:17:05;1.60;99.90
20915;DHT22;10617;52.032;5.298;2024-01-15T00:21:07;1.60;99.90
20915;DHT22;10617;52.032;5.298;2024-01-15T00:25:09;1.50;99.90
20915;DHT22;10617;52.032;5.298;2024-01-15T00:29:10;1.50;99.90
20915;DHT22;10617;52.032;5.298;2024-01-15T00:33:12;1.40;99.90
20915;DHT22;10617;52.032;5.298;2024-01-15T00:37:16;1.40;99.90
20915;DHT22;10617;52.032;5.298;2024-01-15T00:41:18;1.30;99.90
20915;DHT22;10617;52.032;5.298;2024-01-15T00:45:20;1.40;99.90
20915;DHT22;10617;52.032;5.298;2024-01-15T00:53:33;1.30;99.90
20915;DHT22;10617;52.032;5.298;2024-01-15T00:57:35;1.30;99.90
20915;DHT22;10617;52.032;5.298;2024-01-15T01:01:37;1.20;99.90
20915;DHT22;10617;52.032;5.298;2024-01-15T01:05:39;1.20;99.90
20915;DHT22;10617;52.032;5.298;2024-01-15T01:09:41;1.20;99.90
20915;DHT22;10617;52.032;5.298;2024-01-15T01:13:43;1.10;99.90
20915;DHT22;10617;52.032;5.298;2024-01-15T01:17:44;1.10;99.90
20915;DHT22;10617;52.032;5.298;2024-01-15T01:21:46;1.00;99.90
20915;DHT22;10617;52.032;5.298;2024-01-15T01:25:48;1.10;99.90
20915;DHT22;10617;52.032;5.298;2024-01-15T01:29:50;1.10;99.90
20915;DHT22;10617;52.032;5.298;2024-01-15T01:38:28;1.10;99.90
20915;DHT22;10617;52.032;5.298;2024-01-15T01:42:30;1.10;99.90
20915;DHT22;10617;52.032;5.298;2024-01-15T01:46:32;1.10;99.90
20915;DHT22;10617;52.032;5.298;2024-01-15T01:50:35;1.20;99.90
20915;DHT22;10617;52.032;5.298;2024-01-15T01:54:37;1.20;99.90
20915;DHT22;10617;52.032;5.298;2024-01-15T01:58:39;1.20;99.90
20915;DHT22;10617;52.032;5.298;2024-01-15T02:02:41;1.20;99.90
20915;DHT22;10617;52.032;5.298;2024-01-15T02:06:43;1.10;99.90
20915;DHT22;10617;52.032;5.298;2024-01-15T02:10:44;1.10;99.90
20915;DHT22;10617;52.032;5.298;2024-01-15T02:14:46;1.00;99.90
20915;DHT22;10617;52.032;5.298;2024-01-15T02:18:48;1.00;99.90
20915;DHT22;10617;52.032;5.298;2024-01-15T02:22:50;1.00;99.90
20915;DHT22;10617;52.032;5.298;2024-01-15T02:26:51;1.00;99.90
20915;DHT22;10617;52.032;5.298;2024-01-15T02:30:53;1.10;99.90
20915;DHT22;10617;52.032;5.298;2024-01-15T02:34:55;1.10;99.90
20915;DHT22;10617;52.032;5.298;2024-01-15T02:38:57;1.10;99.90
20915;DHT22;10617;52.032;5.298;2024-01-15T02:42:59;1.20;99.90
20915;DHT22;10617;52.032;5.298;2024-01-15T02:47:01;1.10;99.90
20915;DHT22;10617;52.032;5.298;2024-01-15T02:51:02;1.20;99.90
20915;DHT22;10617;52.032;5.298;2024-01-15T02:55:08;1.30;99.90
20915;DHT22;10617;52.032;5.298;2024-01-15T02:59:10;1.30;99.90
20915;DHT22;10617;52.032;5.298;2024-01-15T03:03:12;1.30;99.90
20915;DHT22;10617;52.032;5.298;2024-01-15T03:07:14;1.40;99.90
20915;DHT22;10617;52.032;5.298;2024-01-15T03:11:15;1.40;99.90
20915;DHT22;10617;52.032;5.298;2024-01-15T03:15:17;1.50;99.90
20915;DHT22;10617;52.032;5.298;2024-01-15T03:19:20;1.50;99.90
20915;DHT22;10617;52.032;5.298;2024-01-15T03:23:21;1.50;99.90
20915;DHT22;10617;52.032;5.298;2024-01-15T03:27:23;1.40;99.90
20915;DHT22;10617;52.032;5.298;2024-01-15T03:31:25;1.40;99.90
20915;DHT22;10617;52.032;5.298;2024-01-15T03:35:27;1.40;99.90
20915;DHT22;10617;52.032;5.298;2024-01-15T03:39:32;1.30;99.90
20915;DHT22;10617;52.032;5.298;2024-01-15T03:43:33;1.30;99.90
20915;DHT22;10617;52.032;5.298;2024-01-15T03:47:35;1.30;99.90
20915;DHT22;10617;52.032;5.298;2024-01-15T03:51:37;1.30;99.90
20915;DHT22;10617;52.032;5.298;2024-01-15T03:55:39;1.30;99.90
20915;DHT22;10617;52.032;5.298;2024-01-15T03:59:40;1.40;99.90
20915;DHT22;10617;52.032;5.298;2024-01-15T04:03:43;1.50;99.90
20915;DHT22;10617;52.032;5.298;2024-01-15T04:07:44;1.50;99.90
20915;DHT22;10617;52.032;5.298;2024-01-15T04:11:46;1.50;99.90
20915;DHT22;10617;52.032;5.298;2024-01-15T04:15:48;1.50;99.90
20915;DHT22;10617;52.032;5.298;2024-01-15T04:19:50;1.50;99.90
20915;DHT22;10617;52.032;5.298;2024-01-15T04:23:51;1.50;99.90
20915;DHT22;10617;52.032;5.298;2024-01-15T04:27:53;1.40;99.90
20915;DHT22;10617;52.032;5.298;2024-01-15T04:31:55;1.40;99.90
20915;DHT22;10617;52.032;5.298;2024-01-15T04:35:56;1.40;99.90
20915;DHT22;10617;52.032;5.298;2024-01-15T04:39:58;1.40;99.90
20915;DHT22;10617;52.032;5.298;2024-01-15T04:44:00;1.40;99.90
20915;DHT22;10617;52.032;5.298;2024-01-15T04:48:02;1.30;99.90
20915;DHT22;10617;52.032;5.298;2024-01-15T04:52:04;1.30;99.90
20915;DHT22;10617;52.032;5.298;2024-01-15T04:56:06;1.20;99.90
20915;DHT22;10617;52.032;5.298;2024-01-15T05:00:08;1.20;99.90
20915;DHT22;10617;52.032;5.298;2024-01-15T05:04:10;1.20;99.90
20915;DHT22;10617;52.032;5.298;2024-01-15T05:08:12;1.20;99.90
20915;DHT22;10617;52.032;5.298;2024-01-15T05:12:14;1.20;99.90
20915;DHT22;10617;52.032;5.298;2024-01-15T05:16:15;1.30;99.90
20915;DHT22;10617;52.032;5.298;2024-01-15T05:20:17;1.30;99.90
20915;DHT22;10617;52.032;5.298;2024-01-15T05:24:19;1.30;99.90
20915;DHT22;10617;52.032;5.298;2024-01-15T05:28:21;1.40;99.90
20915;DHT22;10617;52.032;5.298;2024-01-15T05:32:22;1.40;99.90
20915;DHT22;10617;52.032;5.298;2024-01-15T05:36:24;1.40;99.90
20915;DHT22;10617;52.032;5.298;2024-01-15T05:40:26;1.40;99.90
20915;DHT22;10617;52.032;5.298;2024-01-15T05:44:28;1.30;99.90
20915;DHT22;10617;52.032;5.298;2024-01-15T05:53:09;1.30;99.90
20915;DHT22;10617;52.032;5.298;2024-01-15T05:57:11;1.30;99.90
20915;DHT22;10617;52.032;5.298;2024-01-15T06:01:12;1.30;99.90
20915;DHT22;10617;52.032;5.298;2024-01-15T06:05:14;1.30;99.90
20915;DHT22;10617;52.032;5.298;2024-01-15T06:09:16;1.40;99.90
20915;DHT22;10617;52.032;5.298;2024-01-15T06:13:18;1.40;99.90
20915;DHT22;10617;52.032;5.298;2024-01-15T06:17:19;1.40;99.90
20915;DHT22;10617;52.032;5.298;2024-01-15T06:21:21;1.30;99.90
20915;DHT22;10617;52.032;5.298;2024-01-15T06:25:23;1.30;99.90
20915;DHT22;10617;52.032;5.298;2024-01-15T06:29:25;1.30;99.90
20915;DHT22;10617;52.032;5.298;2024-01-15T06:33:27;1.30;99.90
20915;DHT22;10617;52.032;5.298;2024-01-15T06:37:29;1.30;99.90
20915;DHT22;10617;52.032;5.298;2024-01-15T06:41:30;1.30;99.90
20915;DHT22;10617;52.032;5.298;2024-01-15T06:45:32;1.40;99.90
20915;DHT22;10617;52.032;5.298;2024-01-15T06:49:34;1.40;99.90
20915;DHT22;10617;52.032;5.298;2024-01-15T06:53:36;1.30;99.90
20915;DHT22;10617;52.032;5.298;2024-01-15T06:57:38;1.40;99.90
20915;DHT22;10617;52.032;5.298;2024-01-15T07:01:39;1.30;99.90
20915;DHT22;10617;52.032;5.298;2024-01-15T07:05:41;1.30;99.90
20915;DHT22;10617;52.032;5.298;2024-01-15T07:09:43;1.30;99.90
20915;DHT22;10617;52.032;5.298;2024-01-15T07:13:45;1.30;99.90
20915;DHT22;10617;52.032;5.298;2024-01-15T07:17:47;1.20;99.90
20915;DHT22;10617;52.032;5.298;2024-01-15T07:21:49;1.30;99.90
20915;DHT22;10617;52.032;5.298;2024-01-15T07:25:52;1.30;99.90
20915;DHT22;10617;52.032;5.298;2024-01-15T07:29:55;1.30;99.90
20915;DHT22;10617;52.032;5.298;2024-01-15T07:33:58;1.20;99.90
20915;DHT22;10617;52.032;5.298;2024-01-15T07:38:01;1.20;99.90
20915;DHT22;10617;52.032;5.298;2024-01-15T07:42:04;1.20;99.90
20915;DHT22;10617;52.032;5.298;2024-01-15T07:46:06;1.20;99.90
20915;DHT22;10617;52.032;5.298;2024-01-15T07:50:08;1.20;99.90
20915;DHT22;10617;52.032;5.298;2024-01-15T07:54:10;1.10;99.90
20915;DHT22;10617;52.032;5.298;2024-01-15T07:58:13;1.10;99.90
20915;DHT22;10617;52.032;5.298;2024-01-15T08:02:16;1.10;99.90
20915;DHT22;10617;52.032;5.298;2024-01-15T08:06:18;1.20;99.90
20915;DHT22;10617;52.032;5.298;2024-01-15T08:10:21;1.20;99.90
20915;DHT22;10617;52.032;5.298;2024-01-15T08:14:23;1.20;99.90
20915;DHT22;10617;52.032;5.298;2024-01-15T08:18:25;1.20;99.90
20915;DHT22;10617;52.032;5.298;2024-01-15T08:22:27;1.20;99.90
20915;DHT22;10617;52.032;5.298;2024-01-15T08:26:31;1.20;99.90
20915;DHT22;10617;52.032;5.298;2024-01-15T08:30:33;1.20;99.90
20915;DHT22;10617;52.032;5.298;2024-01-15T08:34:35;1.20;99.90
20915;DHT22;10617;52.032;5.298;2024-01-15T08:38:37;1.20;99.90
20915;DHT22;10617;52.032;5.298;2024-01-15T08:42:39;1.20;99.90
20915;DHT22;10617;52.032;5.298;2024-01-15T08:46:40;1.20;99.90
20915;DHT22;10617;52.032;5.298;2024-01-15T08:50:42;1.20;99.90
20915;DHT22;10617;52.032;5.298;2024-01-15T08:54:44;1.20;99.90
20915;DHT22;10617;52.032;5.298;2024-01-15T08:58:46;1.20;99.90
20915;DHT22;10617;52.032;5.298;2024-01-15T09:02:48;1.20;99.90
20915;DHT22;10617;52.032;5.298;2024-01-15T09:06:50;1.20;99.90
20915;DHT22;10617;52.032;5.298;2024-01-15T09:10:51;1.10;99.90
20915;DHT22;10617;52.032;5.298;2024-01-15T09:14:53;1.10;99.90
20915;DHT22;10617;52.032;5.298;2024-01-15T09:18:55;1.20;99.90
20915;DHT22;10617;52.032;5.298;2024-01-15T09:22:59;1.30;99.90
20915;DHT22;10617;52.032;5.298;2024-01-15T09:27:00;1.30;99.90
20915;DHT22;10617;52.032;5.298;2024-01-15T09:31:02;1.30;99.90
20915;DHT22;10617;52.032;5.298;2024-01-15T09:35:04;1.40;99.90
20915;DHT22;10617;52.032;5.298;2024-01-15T09:39:06;1.40;99.90
20915;DHT22;10617;52.032;5.298;2024-01-15T09:43:09;1.50;99.90
20915;DHT22;10617;52.032;5.298;2024-01-15T09:47:11;1.50;99.90
20915;DHT22;10617;52.032;5.298;2024-01-15T09:51:13;1.50;99.90
20915;DHT22;10617;52.032;5.298;2024-01-15T09:55:17;1.40;99.90
20915;DHT22;10617;52.032;5.298;2024-01-15T09:59:19;1.30;99.90
20915;DHT22;10617;52.032;5.298;2024-01-15T10:03:21;1.30;99.90
20915;DHT22;10617;52.032;5.298;2024-01-15T10:07:23;1.30;99.90
20915;DHT22;10617;52.032;5.298;2024-01-15T10:11:26;1.50;99.90
20915;DHT22;10617;52.032;5.298;2024-01-15T10:15:28;1.70;99.90
20915;DHT22;10617;52.032;5.298;2024-01-15T10:19:30;2.10;99.90
20915;DHT22;10617;52.032;5.298;2024-01-15T10:23:32;2.40;99.90
20915;DHT22;10617;52.032;5.298;2024-01-15T10:27:34;2.50;99.90
20915;DHT22;10617;52.032;5.298;2024-01-15T10:31:36;2.70;99.90
20915;DHT22;10617;52.032;5.298;2024-01-15T10:35:39;2.80;99.90
20915;DHT22;10617;52.032;5.298;2024-01-15T10:39:42;2.90;99.90
20915;DHT22;10617;52.032;5.298;2024-01-15T10:43:44;3.00;99.90
20915;DHT22;10617;52.032;5.298;2024-01-15T10:47:46;2.90;99.90
20915;DHT22;10617;52.032;5.298;2024-01-15T10:51:50;2.70;99.90
20915;DHT22;10617;52.032;5.298;2024-01-15T10:55:52;2.50;99.90
20915;DHT22;10617;52.032;5.298;2024-01-15T10:59:54;2.40;99.90
20915;DHT22;10617;52.032;5.298;2024-01-15T11:03:56;2.50;99.90
20915;DHT22;10617;52.032;5.298;2024-01-15T11:07:59;2.60;99.90
20915;DHT22;10617;52.032;5.298;2024-01-15T11:12:11;2.60;99.90
20915;DHT22;10617;52.032;5.298;2024-01-15T11:16:14;2.60;99.90
20915;DHT22;10617;52.032;5.298;2024-01-15T11:20:16;2.60;99.90
20915;DHT22;10617;52.032;5.298;2024-01-15T11:24:33;2.60;99.90
20915;DHT22;10617;52.032;5.298;2024-01-15T11:28:47;2.50;99.90
20915;DHT22;10617;52.032;5.298;2024-01-15T11:32:49;2.50;99.90
20915;DHT22;10617;52.032;5.298;2024-01-15T11:40:52;2.50;99.90
20915;DHT22;10617;52.032;5.298;2024-01-15T11:44:54;2.60;99.90
20915;DHT22;10617;52.032;5.298;2024-01-15T11:48:57;2.70;99.90
20915;DHT22;10617;52.032;5.298;2024-01-15T11:53:04;2.70;99.90
20915;DHT22;10617;52.032;5.298;2024-01-15T11:57:10;2.60;99.90
20915;DHT22;10617;52.032;5.298;2024-01-15T12:01:15;2.50;99.90
20915;DHT22;10617;52.032;5.298;2024-01-15T12:05:18;2.50;99.90
20915;DHT22;10617;52.032;5.298;2024-01-15T12:09:20;2.40;99.90
20915;DHT22;10617;52.032;5.298;2024-01-15T12:13:23;2.40;99.90
20915;DHT22;10617;52.032;5.298;2024-01-15T12:17:25;2.40;99.90
20915;DHT22;10617;52.032;5.298;2024-01-15T12:21:26;2.40;99.90
20915;DHT22;10617;52.032;5.298;2024-01-15T12:25:29;2.80;99.90
20915;DHT22;10617;52.032;5.298;2024-01-15T12:29:31;3.20;99.90
20915;DHT22;10617;52.032;5.298;2024-01-15T12:33:33;3.90;99.90
20915;DHT22;10617;52.032;5.298;2024-01-15T12:37:35;4.10;99.90
20915;DHT22;10617;52.032;5.298;2024-01-15T12:41:40;3.90;99.90
20915;DHT22;10617;52.032;5.298;2024-01-15T12:45:42;3.60;99.90
20915;DHT22;10617;52.032;5.298;2024-01-15T12:49:47;3.40;99.90
20915;DHT22;10617;52.032;5.298;2024-01-15T12:53:58;3.20;99.90
20915;DHT22;10617;52.032;5.298;2024-01-15T12:58:00;3.60;99.90
20915;DHT22;10617;52.032;5.298;2024-01-15T13:02:01;3.90;99.90
20915;DHT22;10617;52.032;5.298;2024-01-15T13:06:03;4.10;99.90
20915;DHT22;10617;52.032;5.298;2024-01-15T13:10:05;4.00;99.90
20915;DHT22;10617;52.032;5.298;2024-01-15T13:14:07;3.80;99.90
20915;DHT22;10617;52.032;5.298;2024-01-15T13:18:09;3.50;99.90
20915;DHT22;10617;52.032;5.298;2024-01-15T13:22:11;3.30;99.90
20915;DHT22;10617;52.032;5.298;2024-01-15T13:26:15;3.30;99.90
20915;DHT22;10617;52.032;5.298;2024-01-15T13:30:19;4.00;99.90
20915;DHT22;10617;52.032;5.298;2024-01-15T13:34:21;4.60;99.90
20915;DHT22;10617;52.032;5.298;2024-01-15T13:38:23;4.70;99.90
20915;DHT22;10617;52.032;5.298;2024-01-15T13:42:25;4.70;99.90
20915;DHT22;10617;52.032;5.298;2024-01-15T13:46:29;4.60;99.90
20915;DHT22;10617;52.032;5.298;2024-01-15T13:50:35;4.30;99.90
20915;DHT22;10617;52.032;5.298;2024-01-15T13:54:37;4.00;99.90
20915;DHT22;10617;52.032;5.298;2024-01-15T13:58:46;3.70;99.90
20915;DHT22;10617;52.032;5.298;2024-01-15T14:02:49;3.50;99.90
20915;DHT22;10617;52.032;5.298;2024-01-15T14:06:51;3.40;99.90
20915;DHT22;10617;52.032;5.298;2024-01-15T14:10:53;3.20;99.90
20915;DHT22;10617;52.032;5.298;2024-01-15T14:14:55;3.20;99.90
20915;DHT22;10617;52.032;5.298;2024-01-15T14:18:57;3.40;99.90
20915;DHT22;10617;52.032;5.298;2024-01-15T14:22:59;3.40;99.90
20915;DHT22;10617;52.032;5.298;2024-01-15T14:27:00;3.50;99.90
20915;DHT22;10617;52.032;5.298;2024-01-15T14:31:02;3.40;99.90
20915;DHT22;10617;52.032;5.298;2024-01-15T14:35:05;3.20;99.90
20915;DHT22;10617;52.032;5.298;2024-01-15T14:39:07;3.10;99.90
20915;DHT22;10617;52.032;5.298;2024-01-15T14:43:09;3.10;99.90
20915;DHT22;10617;52.032;5.298;2024-01-15T14:47:10;3.10;99.90
20915;DHT22;10617;52.032;5.298;2024-01-15T14:51:12;3.20;99.90
20915;DHT22;10617;52.032;5.298;2024-01-15T14:55:14;3.50;99.90
20915;DHT22;10617;52.032;5.298;2024-01-15T14:59:16;3.60;99.90
20915;DHT22;10617;52.032;5.298;2024-01-15T15:03:18;3.50;99.90
20915;DHT22;10617;52.032;5.298;2024-01-15T15:07:19;3.30;99.90
20915;DHT22;10617;52.032;5.298;2024-01-15T15:11:21;3.50;99.90
20915;DHT22;10617;52.032;5.298;2024-01-15T15:15:24;3.60;99.90
20915;DHT22;10617;52.032;5.298;2024-01-15T15:19:26;3.60;99.90
20915;DHT22;10617;52.032;5.298;2024-01-15T15:23:28;3.50;99.90
20915;DHT22;10617;52.032;5.298;2024-01-15T15:27:29;3.40;99.90
20915;DHT22;10617;52.032;5.298;2024-01-15T15:31:31;3.30;99.90
20915;DHT22;10617;52.032;5.298;2024-01-15T15:35:33;3.20;99.90
20915;DHT22;10617;52.032;5.298;2024-01-15T15:39:35;3.20;99.90
20915;DHT22;10617;52.032;5.298;2024-01-15T15:43:36;3.10;99.90
20915;DHT22;10617;52.032;5.298;2024-01-15T15:47:38;3.10;99.90
20915;DHT22;10617;52.032;5.298;2024-01-15T15:51:40;3.10;99.90
20915;DHT22;10617;52.032;5.298;2024-01-15T15:55:42;3.10;99.90
20915;DHT22;10617;52.032;5.298;2024-01-15T15:59:45;3.00;99.90
20915;DHT22;10617;52.032;5.298;2024-01-15T16:03:47;3.00;99.90
20915;DHT22;10617;52.032;5.298;2024-01-15T16:07:48;2.90;99.90
20915;DHT22;10617;52.032;5.298;2024-01-15T16:11:50;2.90;99.90
20915;DHT22;10617;52.032;5.298;2024-01-15T16:15:52;2.90;99.90
20915;DHT22;10617;52.032;5.298;2024-01-15T16:20:13;2.80;99.90
20915;DHT22;10617;52.032;5.298;2024-01-15T16:24:35;2.80;99.90
20915;DHT22;10617;52.032;5.298;2024-01-15T16:28:46;2.70;99.90
20915;DHT22;10617;52.032;5.298;2024-01-15T16:32:48;2.60;99.90
20915;DHT22;10617;52.032;5.298;2024-01-15T16:36:50;2.50;99.90
20915;DHT22;10617;52.032;5.298;2024-01-15T16:40:52;2.40;99.90
20915;DHT22;10617;52.032;5.298;2024-01-15T16:44:54;2.30;99.90
20915;DHT22;10617;52.032;5.298;2024-01-15T16:48:56;2.30;99.90
20915;DHT22;10617;52.032;5.298;2024-01-15T16:52:57;2.30;99.90
20915;DHT22;10617;52.032;5.298;2024-01-15T16:56:59;2.20;99.90
20915;DHT22;10617;52.032;5.298;2024-01-15T17:01:01;2.10;99.90
20915;DHT22;10617;52.032;5.298;2024-01-15T17:05:03;2.10;99.90
20915;DHT22;10617;52.032;5.298;2024-01-15T17:09:05;2.10;99.90
20915;DHT22;10617;52.032;5.298;2024-01-15T17:13:07;2.00;99.90
20915;DHT22;10617;52.032;5.298;2024-01-15T17:17:10;2.00;99.90
20915;DHT22;10617;52.032;5.298;2024-01-15T17:21:12;2.00;99.90
20915;DHT22;10617;52.032;5.298;2024-01-15T17:25:14;2.00;99.90
20915;DHT22;10617;52.032;5.298;2024-01-15T17:29:16;2.00;99.90
20915;DHT22;10617;52.032;5.298;2024-01-15T17:33:19;2.00;99.90
20915;DHT22;10617;52.032;5.298;2024-01-15T17:37:21;1.90;99.90
20915;DHT22;10617;52.032;5.298;2024-01-15T17:41:23;1.90;99.90
20915;DHT22;10617;52.032;5.298;2024-01-15T17:45:24;2.00;99.90
20915;DHT22;10617;52.032;5.298;2024-01-15T17:49:28;1.90;99.90
20915;DHT22;10617;52.032;5.298;2024-01-15T17:53:30;1.90;99.90
20915;DHT22;10617;52.032;5.298;2024-01-15T18:02:38;1.80;99.90
20915;DHT22;10617;52.032;5.298;2024-01-15T18:06:40;1.80;99.90
20915;DHT22;10617;52.032;5.298;2024-01-15T18:10:42;1.80;99.90
20915;DHT22;10617;52.032;5.298;2024-01-15T18:14:44;1.80;99.90
20915;DHT22;10617;52.032;5.298;2024-01-15T18:18:45;1.70;99.90
20915;DHT22;10617;52.032;5.298;2024-01-15T18:22:47;1.70;99.90
20915;DHT22;10617;52.032;5.298;2024-01-15T18:31:34;1.70;99.90
20915;DHT22;10617;52.032;5.298;2024-01-15T18:35:36;1.60;99.90
20915;DHT22;10617;52.032;5.298;2024-01-15T18:39:41;1.60;99.90
20915;DHT22;10617;52.032;5.298;2024-01-15T18:43:43;1.60;99.90
20915;DHT22;10617;52.032;5.298;2024-01-15T18:47:45;1.60;99.90
20915;DHT22;10617;52.032;5.298;2024-01-15T18:51:47;1.60;99.90
20915;DHT22;10617;52.032;5.298;2024-01-15T18:55:54;1.60;99.90
20915;DHT22;10617;52.032;5.298;2024-01-15T19:04:30;1.60;99.90
20915;DHT22;10617;52.032;5.298;2024-01-15T19:08:32;1.50;99.90
20915;DHT22;10617;52.032;5.298;2024-01-15T19:12:35;1.50;99.90
20915;DHT22;10617;52.032;5.298;2024-01-15T19:16:36;1.50;99.90
20915;DHT22;10617;52.032;5.298;2024-01-15T19:20:38;1.50;99.90
20915;DHT22;10617;52.032;5.298;2024-01-15T19:24:40;1.50;99.90
20915;DHT22;10617;52.032;5.298;2024-01-15T19:28:46;1.50;99.90
20915;DHT22;10617;52.032;5.298;2024-01-15T19:32:49;1.60;99.90
20915;DHT22;10617;52.032;5.298;2024-01-15T19:36:50;1.70;99.90
20915;DHT22;10617;52.032;5.298;2024-01-15T19:40:52;1.70;99.90
20915;DHT22;10617;52.032;5.298;2024-01-15T19:44:54;1.70;99.90
20915;DHT22;10617;52.032;5.298;2024-01-15T19:48:55;1.60;99.90
20915;DHT22;10617;52.032;5.298;2024-01-15T19:52:57;1.60;99.90
20915;DHT22;10617;52.032;5.298;2024-01-15T20:02:02;1.50;99.90
20915;DHT22;10617;52.032;5.298;2024-01-15T20:06:04;1.40;99.90
20915;DHT22;10617;52.032;5.298;2024-01-15T20:10:12;1.40;99.90
20915;DHT22;10617;52.032;5.298;2024-01-15T20:14:14;1.30;99.90
20915;DHT22;10617;52.032;5.298;2024-01-15T20:18:16;1.20;99.90
20915;DHT22;10617;52.032;5.298;2024-01-15T20:22:19;1.20;99.90
20915;DHT22;10617;52.032;5.298;2024-01-15T20:26:21;1.10;99.90
20915;DHT22;10617;52.032;5.298;2024-01-15T20:30:23;1.00;99.90
20915;DHT22;10617;52.032;5.298;2024-01-15T20:34:25;0.90;99.90
20915;DHT22;10617;52.032;5.298;2024-01-15T20:38:28;0.90;99.90
20915;DHT22;10617;52.032;5.298;2024-01-15T20:42:30;0.80;99.90
20915;DHT22;10617;52.032;5.298;2024-01-15T20:46:31;0.80;99.90
20915;DHT22;10617;52.032;5.298;2024-01-15T20:50:33;0.80;99.90
20915;DHT22;10617;52.032;5.298;2024-01-15T20:54:35;0.80;99.90
20915;DHT22;10617;52.032;5.298;2024-01-15T20:58:37;0.80;99.90
20915;DHT22;10617;52.032;5.298;2024-01-15T21:02:39;0.90;99.90
20915;DHT22;10617;52.032;5.298;2024-01-15T21:06:41;1.00;99.90
20915;DHT22;10617;52.032;5.298;2024-01-15T21:11:01;1.00;99.90
20915;DHT22;10617;52.032;5.298;2024-01-15T21:15:05;1.00;99.90
20915;DHT22;10617;52.032;5.298;2024-01-15T21:19:09;1.00;99.90
20915;DHT22;10617;52.032;5.298;2024-01-15T21:28:14;0.90;99.90
20915;DHT22;10617;52.032;5.298;2024-01-15T21:32:16;0.90;99.90
20915;DHT22;10617;52.032;5.298;2024-01-15T21:36:19;0.90;99.90
20915;DHT22;10617;52.032;5.298;2024-01-15T21:44:48;0.80;99.90
20915;DHT22;10617;52.032;5.298;2024-01-15T21:48:50;0.70;99.90
20915;DHT22;10617;52.032;5.298;2024-01-15T21:52:52;0.70;99.90
20915;DHT22;10617;52.032;5.298;2024-01-15T21:56:54;0.70;99.90
20915;DHT22;10617;52.032;5.298;2024-01-15T22:00:55;0.70;99.90
20915;DHT22;10617;52.032;5.298;2024-01-15T22:04:58;0.60;99.90
20915;DHT22;10617;52.032;5.298;2024-01-15T22:08:59;0.60;99.90
20915;DHT22;10617;52.032;5.298;2024-01-15T22:13:01;0.60;99.90
20915;DHT22;10617;52.032;5.298;2024-01-15T22:17:03;0.60;99.90
20915;DHT22;10617;52.032;5.298;2024-01-15T22:21:04;0.50;99.90
20915;DHT22;10617;52.032;5.298;2024-01-15T22:25:07;0.50;99.90
20915;DHT22;10617;52.032;5.298;2024-01-15T22:29:08;0.50;99.90
20915;DHT22;10617;52.032;5.298;2024-01-15T22:38:13;0.50;99.90
20915;DHT22;10617;52.032;5.298;2024-01-15T22:42:16;0.50;99.90
20915;DHT22;10617;52.032;5.298;2024-01-15T22:46:18;0.60;99.90
20915;DHT22;10617;52.032;5.298;2024-01-15T22:50:20;0.70;99.90
20915;DHT22;10617;52.032;5.298;2024-01-15T22:54:22;0.70;99.90
20915;DHT22;10617;52.032;5.298;2024-01-15T22:58:23;0.70;99.90
20915;DHT22;10617;52.032;5.298;2024-01-15T23:02:25;0.70;99.90
20915;DHT22;10617;52.032;5.298;2024-01-15T23:11:24;0.60;99.90
20915;DHT22;10617;52.032;5.298;2024-01-15T23:15:26;0.60;99.90
20915;DHT22;10617;52.032;5.298;2024-01-15T23:19:30;0.50;99.90
20915;DHT22;10617;52.032;5.298;2024-01-15T23:23:31;0.50;99.90
20915;DHT22;10617;52.032;5.298;2024-01-15T23:27:33;0.50;99.90
20915;DHT22;10617;52.032;5.298;2024-01-15T23:31:39;0.40;99.90
20915;DHT22;10617;52.032;5.298;2024-01-15T23:35:40;0.30;99.90
20915;DHT22;10617;52.032;5.298;2024-01-15T23:39:42;0.30;99.90
20915;DHT22;10617;52.032;5.298;2024-01-15T23:43:44;0.30;99.90
20915;DHT22;10617;52.032;5.298;2024-01-15T23:47:46;0.30;99.90
20915;DHT22;10617;52.032;5.298;2024-01-15T23:51:47;0.30;99.90
20915;DHT22;10617;52.032;5.298;2024-01-15T23:55:49;0.30;99.90
20915;DHT22;10617;52.032;5.298;2024-01-15T23:59:51;0.20;99.90
